Time,TemperatureF,DewpointF,PressureIn,WindDirection,WindDirectionDegrees,WindSpeedMPH,WindSpeedGustMPH,Humidity,HourlyPrecipIn,Conditions,Clouds,dailyrainin,SoftwareType,DateUTC
2013-03-06 00:01:00,46.0,28.9,29.50,ENE,63,3.6,3.6,51,0.00,,,0.00,VWS V14.01,2013-03-06 00:01:00,
2013-03-06 00:06:00,46.2,29.1,29.50,ENE,77,2.7,3.6,51,0.00,,,0.00,VWS V14.01,2013-03-06 00:06:00,
2013-03-06 00:11:00,46.2,29.1,29.50,East,96,3.1,3.1,51,0.00,,,0.00,VWS V14.01,2013-03-06 00:11:00,
2013-03-06 00:16:00,46.2,29.1,29.50,East,86,2.2,2.2,51,0.00,,,0.00,VWS V14.01,2013-03-06 00:16:00,
2013-03-06 00:21:00,46.2,29.1,29.50,ESE,115,0.0,0.0,51,0.00,,,0.00,VWS V14.01,2013-03-06 00:21:00,
2013-03-06 00:26:00,46.2,29.1,29.50,ENE,78,0.0,0.0,51,0.00,,,0.00,VWS V14.01,2013-03-06 00:26:00,
2013-03-06 00:31:00,46.2,29.1,29.50,East,81,0.0,0.0,51,0.00,,,0.00,VWS V14.01,2013-03-06 00:31:00,
2013-03-06 00:36:00,46.2,29.1,29.50,ENE,70,0.0,0.0,51,0.00,,,0.00,VWS V14.01,2013-03-06 00:36:00,
2013-03-06 00:41:00,46.2,29.1,29.50,ENE,75,0.0,0.0,51,0.00,,,0.00,VWS V14.01,2013-03-06 00:41:00,
2013-03-06 00:47:00,46.2,29.1,29.50,East,98,0.0,0.0,51,0.00,,,0.00,VWS V14.01,2013-03-06 00:47:00,
2013-03-06 00:52:00,46.2,29.1,29.50,East,89,0.0,0.0,51,0.00,,,0.00,VWS V14.01,2013-03-06 00:52:00,
2013-03-06 00:57:00,46.2,29.1,29.50,ENE,63,0.0,0.0,51,0.00,,,0.00,VWS V14.01,2013-03-06 00:57:00,
2013-03-06 01:02:00,43.7,27.2,29.50,ENE,76,0.0,0.0,52,0.00,,,0.00,VWS V14.01,2013-03-06 01:02:00,
2013-03-06 01:07:00,43.7,27.2,29.50,East,83,3.6,4.0,52,0.00,,,0.00,VWS V14.01,2013-03-06 01:07:00,
2013-03-06 01:12:00,43.7,27.2,29.50,East,84,2.7,3.1,52,0.00,,,0.00,VWS V14.01,2013-03-06 01:12:00,
2013-03-06 01:17:00,43.7,27.2,29.50,East,80,3.6,3.6,52,0.00,,,0.00,VWS V14.01,2013-03-06 01:17:00,
2013-03-06 01:22:00,43.7,27.2,29.50,East,94,0.0,3.1,52,0.00,,,0.00,VWS V14.01,2013-03-06 01:22:00,
2013-03-06 01:27:00,44.2,28.7,29.50,East,98,0.0,0.0,54,0.00,,,0.00,VWS V14.01,2013-03-06 01:27:00,
2013-03-06 01:32:00,44.2,29.1,29.50,East,85,3.6,4.0,55,0.00,,,0.00,VWS V14.01,2013-03-06 01:32:00,
2013-03-06 01:37:00,44.2,29.1,29.50,ENE,73,0.0,0.0,55,0.00,,,0.00,VWS V14.01,2013-03-06 01:37:00,
2013-03-06 01:42:00,44.2,29.1,29.50,ENE,72,0.0,0.0,55,0.00,,,0.00,VWS V14.01,2013-03-06 01:42:00,
2013-03-06 01:47:00,44.2,29.1,29.50,ENE,71,0.0,0.0,55,0.00,,,0.00,VWS V14.01,2013-03-06 01:47:00,
2013-03-06 01:52:00,44.2,29.1,29.50,ENE,71,0.0,0.0,55,0.00,,,0.00,VWS V14.01,2013-03-06 01:52:00,
2013-03-06 01:57:00,44.2,29.1,29.50,ENE,75,3.1,3.1,55,0.00,,,0.00,VWS V14.01,2013-03-06 01:57:00,
2013-03-06 02:02:00,44.2,29.1,29.50,East,82,0.0,2.2,55,0.00,,,0.00,VWS V14.01,2013-03-06 02:02:00,
2013-03-06 02:07:00,44.2,29.1,29.50,ENE,70,0.0,0.0,55,0.00,,,0.00,VWS V14.01,2013-03-06 02:07:00,
2013-03-06 02:12:00,44.2,29.1,29.50,ENE,77,0.0,0.0,55,0.00,,,0.00,VWS V14.01,2013-03-06 02:12:00,
2013-03-06 02:18:00,44.2,29.1,29.50,East,81,0.0,0.0,55,0.00,,,0.00,VWS V14.01,2013-03-06 02:18:00,
2013-03-06 02:23:00,44.2,29.1,29.50,East,81,0.0,0.0,55,0.00,,,0.00,VWS V14.01,2013-03-06 02:23:00,
2013-03-06 02:28:00,44.2,29.1,29.50,East,80,0.0,0.0,55,0.00,,,0.00,VWS V14.01,2013-03-06 02:28:00,
2013-03-06 02:33:00,44.2,29.1,29.50,East,86,0.0,0.0,55,0.00,,,0.00,VWS V14.01,2013-03-06 02:33:00,
2013-03-06 02:38:00,42.3,28.1,29.50,East,81,0.0,0.0,57,0.00,,,0.00,VWS V14.01,2013-03-06 02:38:00,
2013-03-06 02:43:00,42.1,28.0,29.50,East,81,0.0,0.0,57,0.00,,,0.00,VWS V14.01,2013-03-06 02:43:00,
2013-03-06 02:48:00,42.1,28.4,29.50,East,81,0.0,0.0,58,0.00,,,0.00,VWS V14.01,2013-03-06 02:48:00,
2013-03-06 02:53:00,42.1,28.4,29.50,East,81,0.0,0.0,58,0.00,,,0.00,VWS V14.01,2013-03-06 02:53:00,
2013-03-06 02:58:00,42.3,28.5,29.50,East,81,0.0,0.0,58,0.00,,,0.00,VWS V14.01,2013-03-06 02:58:00,
2013-03-06 03:03:00,42.3,29.0,29.50,East,81,0.0,0.0,59,0.00,,,0.00,VWS V14.01,2013-03-06 03:03:00,
2013-03-06 03:08:00,42.3,29.0,29.50,East,81,0.0,0.0,59,0.00,,,0.00,VWS V14.01,2013-03-06 03:08:00,
2013-03-06 03:13:00,42.3,29.0,29.47,East,86,0.0,0.0,59,0.00,,,0.00,VWS V14.01,2013-03-06 03:13:00,
2013-03-06 03:18:00,42.3,29.0,29.47,ENE,76,0.0,0.0,59,0.00,,,0.00,VWS V14.01,2013-03-06 03:18:00,
2013-03-06 03:23:00,42.8,29.9,29.47,ENE,68,0.0,0.0,60,0.00,,,0.00,VWS V14.01,2013-03-06 03:23:00,
2013-03-06 03:28:00,43.2,30.6,29.47,ENE,70,0.0,0.0,61,0.00,,,0.00,VWS V14.01,2013-03-06 03:28:00,
2013-03-06 03:34:00,43.2,30.6,29.47,ENE,70,0.0,0.0,61,0.00,,,0.00,VWS V14.01,2013-03-06 03:34:00,
2013-03-06 03:39:00,43.2,30.6,29.47,ENE,70,0.0,0.0,61,0.00,,,0.00,VWS V14.01,2013-03-06 03:39:00,
2013-03-06 03:44:00,43.2,30.6,29.47,East,84,0.0,0.0,61,0.00,,,0.00,VWS V14.01,2013-03-06 03:44:00,
2013-03-06 03:49:00,43.3,30.8,29.47,ESE,112,0.0,0.0,61,0.00,,,0.00,VWS V14.01,2013-03-06 03:49:00,
2013-03-06 03:54:00,43.5,31.0,29.47,ENE,78,0.0,0.0,61,0.00,,,0.00,VWS V14.01,2013-03-06 03:54:00,
2013-03-06 03:59:00,43.5,31.0,29.47,East,85,0.0,0.0,61,0.00,,,0.00,VWS V14.01,2013-03-06 03:59:00,
2013-03-06 04:04:00,43.5,31.0,29.47,East,89,0.0,0.0,61,0.00,,,0.00,VWS V14.01,2013-03-06 04:04:00,
2013-03-06 04:09:00,43.5,31.0,29.47,ESE,108,0.0,0.0,61,0.00,,,0.00,VWS V14.01,2013-03-06 04:09:00,
2013-03-06 04:14:00,44.2,32.1,29.47,East,101,0.0,0.0,62,0.00,,,0.00,VWS V14.01,2013-03-06 04:14:00,
2013-03-06 04:19:00,44.2,32.5,29.47,ENE,57,0.0,0.0,63,0.00,,,0.00,VWS V14.01,2013-03-06 04:19:00,
2013-03-06 04:24:00,44.4,32.6,29.47,East,81,2.7,3.6,63,0.00,,,0.00,VWS V14.01,2013-03-06 04:24:00,
2013-03-06 04:29:00,44.4,32.6,29.47,ENE,70,2.2,3.6,63,0.00,,,0.00,VWS V14.01,2013-03-06 04:29:00,
2013-03-06 04:34:00,44.8,33.4,29.47,East,80,0.0,0.0,64,0.00,,,0.00,VWS V14.01,2013-03-06 04:34:00,
2013-03-06 04:39:00,44.8,33.0,29.47,East,83,2.2,2.7,63,0.00,,,0.00,VWS V14.01,2013-03-06 04:39:00,
2013-03-06 04:44:00,45.0,33.1,29.47,ENE,75,0.0,0.0,63,0.00,,,0.00,VWS V14.01,2013-03-06 04:44:00,
2013-03-06 04:49:00,45.0,33.1,29.47,ENE,75,3.1,3.1,63,0.00,,,0.00,VWS V14.01,2013-03-06 04:49:00,
2013-03-06 04:54:00,45.1,33.3,29.47,NE,53,4.0,4.0,63,0.00,,,0.00,VWS V14.01,2013-03-06 04:54:00,
2013-03-06 04:59:00,45.1,33.3,29.47,ENE,71,0.0,0.0,63,0.00,,,0.00,VWS V14.01,2013-03-06 04:59:00,
2013-03-06 05:00:00,45.1,33.3,29.47,ENE,71,0.0,0.0,63,0.00,,,0.00,VWS V14.01,2013-03-06 05:00:00,
2013-03-06 05:01:00,45.1,33.3,29.47,NE,52,3.6,3.6,63,0.00,,,0.00,VWS V14.01,2013-03-06 05:01:00,
2013-03-06 05:06:00,45.1,33.3,29.47,ENE,75,2.7,3.6,63,0.00,,,0.00,VWS V14.01,2013-03-06 05:06:00,
2013-03-06 05:11:00,45.1,33.3,29.47,East,88,2.7,3.1,63,0.00,,,0.00,VWS V14.01,2013-03-06 05:11:00,
2013-03-06 05:16:00,45.1,33.3,29.47,East,90,2.7,2.7,63,0.00,,,0.00,VWS V14.01,2013-03-06 05:16:00,
2013-03-06 05:21:00,45.3,33.5,29.47,East,87,0.0,0.0,63,0.00,,,0.00,VWS V14.01,2013-03-06 05:21:00,
2013-03-06 05:26:00,45.3,33.1,29.47,ENE,57,0.0,0.0,62,0.00,,,0.00,VWS V14.01,2013-03-06 05:26:00,
2013-03-06 05:31:00,45.3,33.1,29.47,NE,38,0.0,3.1,62,0.00,,,0.00,VWS V14.01,2013-03-06 05:31:00,
2013-03-06 05:36:00,45.3,33.1,29.47,NNE,21,0.0,0.0,62,0.00,,,0.00,VWS V14.01,2013-03-06 05:36:00,
2013-03-06 05:41:00,45.3,33.1,29.47,NE,43,0.0,0.0,62,0.00,,,0.00,VWS V14.01,2013-03-06 05:41:00,
2013-03-06 05:46:00,45.1,32.9,29.47,NE,48,0.0,0.0,62,0.00,,,0.00,VWS V14.01,2013-03-06 05:46:00,
2013-03-06 05:51:00,45.1,32.9,29.47,NE,52,0.0,0.0,62,0.00,,,0.00,VWS V14.01,2013-03-06 05:51:00,
2013-03-06 05:56:00,45.1,33.3,29.47,ENE,58,0.0,0.0,63,0.00,,,0.00,VWS V14.01,2013-03-06 05:56:00,
2013-03-06 06:01:00,45.3,33.5,29.47,NE,50,0.0,0.0,63,0.00,,,0.00,VWS V14.01,2013-03-06 06:01:00,
2013-03-06 06:06:00,45.3,33.5,29.47,East,81,0.0,0.0,63,0.00,,,0.00,VWS V14.01,2013-03-06 06:06:00,
2013-03-06 06:12:00,45.3,33.5,29.47,ENE,71,0.0,0.0,63,0.00,,,0.00,VWS V14.01,2013-03-06 06:12:00,
2013-03-06 06:17:00,45.3,33.5,29.47,East,80,0.0,3.1,63,0.00,,,0.00,VWS V14.01,2013-03-06 06:17:00,
2013-03-06 06:22:00,45.5,34.0,29.47,East,86,3.1,4.0,64,0.00,,,0.00,VWS V14.01,2013-03-06 06:22:00,
2013-03-06 06:27:00,45.5,34.0,29.47,ENE,67,0.0,2.7,64,0.00,,,0.00,VWS V14.01,2013-03-06 06:27:00,
2013-03-06 06:32:00,45.5,34.0,29.47,ENE,76,3.6,3.6,64,0.00,,,0.00,VWS V14.01,2013-03-06 06:32:00,
2013-03-06 06:37:00,45.5,34.0,29.47,ENE,72,4.9,4.9,64,0.00,,,0.00,VWS V14.01,2013-03-06 06:37:00,
2013-03-06 06:42:00,45.5,34.0,29.47,ENE,65,3.1,4.5,64,0.00,,,0.00,VWS V14.01,2013-03-06 06:42:00,
2013-03-06 06:47:00,45.5,34.0,29.47,East,82,4.9,5.8,64,0.00,,,0.00,VWS V14.01,2013-03-06 06:47:00,
2013-03-06 06:52:00,45.7,34.2,29.47,ENE,68,3.1,3.1,64,0.00,,,0.00,VWS V14.01,2013-03-06 06:52:00,
2013-03-06 06:57:00,45.7,34.2,29.47,NE,37,0.0,0.0,64,0.00,,,0.00,VWS V14.01,2013-03-06 06:57:00,
2013-03-06 07:02:00,45.9,34.4,29.47,NE,38,3.6,3.6,64,0.00,,,0.00,VWS V14.01,2013-03-06 07:02:00,
2013-03-06 07:07:00,45.9,34.8,29.47,ENE,65,3.6,3.6,65,0.00,,,0.00,VWS V14.01,2013-03-06 07:07:00,
2013-03-06 07:12:00,45.9,34.8,29.47,ENE,76,2.7,3.1,65,0.00,,,0.00,VWS V14.01,2013-03-06 07:12:00,
2013-03-06 07:17:00,45.9,34.8,29.47,ENE,75,2.7,3.6,65,0.00,,,0.00,VWS V14.01,2013-03-06 07:17:00,
2013-03-06 07:22:00,45.9,34.8,29.47,ENE,77,2.7,3.1,65,0.00,,,0.00,VWS V14.01,2013-03-06 07:22:00,
2013-03-06 07:27:00,46.0,35.0,29.47,NE,47,4.0,4.0,65,0.00,,,0.00,VWS V14.01,2013-03-06 07:27:00,
2013-03-06 07:32:00,46.0,35.0,29.47,East,85,5.4,5.4,65,0.00,,,0.00,VWS V14.01,2013-03-06 07:32:00,
2013-03-06 07:37:00,46.0,35.0,29.47,NE,56,3.6,4.0,65,0.00,,,0.00,VWS V14.01,2013-03-06 07:37:00,
2013-03-06 07:42:00,46.0,35.0,29.47,ENE,60,5.8,5.8,65,0.00,,,0.00,VWS V14.01,2013-03-06 07:42:00,
2013-03-06 07:47:00,46.2,35.1,29.47,NE,50,3.1,3.1,65,0.00,,,0.00,VWS V14.01,2013-03-06 07:47:00,
2013-03-06 07:52:00,46.2,35.1,29.47,ENE,75,0.0,0.0,65,0.00,,,0.00,VWS V14.01,2013-03-06 07:52:00,
2013-03-06 07:57:00,46.2,35.1,29.47,ENE,60,4.0,4.0,65,0.00,,,0.00,VWS V14.01,2013-03-06 07:57:00,
2013-03-06 08:02:00,46.4,34.9,29.47,NNE,32,3.1,3.1,64,0.00,,,0.00,VWS V14.01,2013-03-06 08:02:00,
2013-03-06 08:07:00,46.4,34.9,29.47,ENE,78,2.7,4.0,64,0.00,,,0.00,VWS V14.01,2013-03-06 08:07:00,
2013-03-06 08:12:00,46.6,35.1,29.50,East,79,2.7,3.6,64,0.00,,,0.00,VWS V14.01,2013-03-06 08:12:00,
2013-03-06 08:17:00,46.8,35.2,29.50,NNE,18,4.0,4.0,64,0.00,,,0.00,VWS V14.01,2013-03-06 08:17:00,
2013-03-06 08:22:00,46.8,34.8,29.50,NE,43,4.0,4.0,63,0.00,,,0.00,VWS V14.01,2013-03-06 08:22:00,
2013-03-06 08:27:00,46.9,35.0,29.50,NE,39,5.4,5.4,63,0.00,,,0.00,VWS V14.01,2013-03-06 08:27:00,
2013-03-06 08:32:00,47.1,35.2,29.50,ENE,66,4.0,4.0,63,0.00,,,0.00,VWS V14.01,2013-03-06 08:32:00,
2013-03-06 08:38:00,47.1,34.8,29.50,ENE,67,4.0,4.0,62,0.00,,,0.00,VWS V14.01,2013-03-06 08:38:00,
2013-03-06 08:43:00,47.3,34.5,29.50,ESE,104,4.9,4.9,61,0.00,,,0.00,VWS V14.01,2013-03-06 08:43:00,
2013-03-06 08:48:00,47.5,34.7,29.50,East,97,4.0,4.9,61,0.00,,,0.00,VWS V14.01,2013-03-06 08:48:00,
2013-03-06 08:53:00,47.5,34.3,29.50,North,353,5.8,6.3,60,0.00,,,0.00,VWS V14.01,2013-03-06 08:53:00,
2013-03-06 08:58:00,47.7,34.0,29.50,North,353,4.5,5.4,59,0.00,,,0.00,VWS V14.01,2013-03-06 08:58:00,
2013-03-06 09:03:00,47.8,34.2,29.50,North,353,3.6,6.3,59,0.00,,,0.00,VWS V14.01,2013-03-06 09:03:00,
2013-03-06 09:08:00,48.4,34.3,29.50,North,353,4.0,4.0,58,0.00,,,0.00,VWS V14.01,2013-03-06 09:08:00,
2013-03-06 09:13:00,48.9,34.8,29.50,North,353,3.6,4.0,58,0.00,,,0.00,VWS V14.01,2013-03-06 09:13:00,
2013-03-06 09:18:00,49.1,34.1,29.50,North,353,5.4,5.4,56,0.00,,,0.00,VWS V14.01,2013-03-06 09:18:00,
2013-03-06 09:23:00,49.1,33.2,29.50,North,353,5.4,5.8,54,0.00,,,0.00,VWS V14.01,2013-03-06 09:23:00,
2013-03-06 09:28:00,49.1,33.2,29.50,North,353,4.9,4.9,54,0.00,,,0.00,VWS V14.01,2013-03-06 09:28:00,
2013-03-06 09:33:00,49.3,32.9,29.50,North,353,3.1,4.9,53,0.00,,,0.00,VWS V14.01,2013-03-06 09:33:00,
2013-03-06 09:38:00,49.3,32.9,29.50,North,353,5.4,5.4,53,0.00,,,0.00,VWS V14.01,2013-03-06 09:38:00,
2013-03-06 09:43:00,49.6,33.2,29.47,North,353,4.0,4.0,53,0.00,,,0.00,VWS V14.01,2013-03-06 09:43:00,
2013-03-06 09:48:00,49.6,32.3,29.47,North,353,5.8,5.8,51,0.00,,,0.00,VWS V14.01,2013-03-06 09:48:00,
2013-03-06 09:53:00,49.6,31.8,29.47,North,353,6.3,6.3,50,0.00,,,0.00,VWS V14.01,2013-03-06 09:53:00,
2013-03-06 09:58:00,49.8,31.9,29.47,North,353,5.4,5.8,50,0.00,,,0.00,VWS V14.01,2013-03-06 09:58:00,
2013-03-06 10:03:00,50.0,32.1,29.47,North,353,2.7,3.1,50,0.00,,,0.00,VWS V14.01,2013-03-06 10:03:00,
2013-03-06 10:08:00,50.2,32.3,29.47,North,353,5.4,5.4,50,0.00,,,0.00,VWS V14.01,2013-03-06 10:08:00,
2013-03-06 10:13:00,50.7,31.8,29.47,North,353,4.9,4.9,48,0.00,,,0.00,VWS V14.01,2013-03-06 10:13:00,
2013-03-06 10:18:00,51.1,32.1,29.47,North,353,5.4,8.1,48,0.00,,,0.00,VWS V14.01,2013-03-06 10:18:00,
2013-03-06 10:23:00,51.3,31.7,29.47,North,353,3.6,7.2,47,0.00,,,0.00,VWS V14.01,2013-03-06 10:23:00,
2013-03-06 10:28:00,51.4,31.9,29.47,North,353,4.9,5.8,47,0.00,,,0.00,VWS V14.01,2013-03-06 10:28:00,
2013-03-06 10:33:00,51.4,31.4,29.47,North,353,6.7,6.7,46,0.00,,,0.00,VWS V14.01,2013-03-06 10:33:00,
2013-03-06 10:38:00,51.6,31.5,29.47,North,353,4.9,5.4,46,0.00,,,0.00,VWS V14.01,2013-03-06 10:38:00,
2013-03-06 10:43:00,51.8,31.1,29.47,North,353,5.8,8.1,45,0.00,,,0.00,VWS V14.01,2013-03-06 10:43:00,
2013-03-06 10:48:00,52.2,31.5,29.47,North,353,6.3,6.3,45,0.00,,,0.00,VWS V14.01,2013-03-06 10:48:00,
2013-03-06 10:53:00,52.5,31.2,29.47,North,353,7.6,7.6,44,0.00,,,0.00,VWS V14.01,2013-03-06 10:53:00,
2013-03-06 10:58:00,52.7,31.4,29.47,North,353,4.0,7.6,44,0.00,,,0.00,VWS V14.01,2013-03-06 10:58:00,
2013-03-06 11:03:00,52.5,30.7,29.47,North,353,5.4,5.8,43,0.00,,,0.00,VWS V14.01,2013-03-06 11:03:00,
2013-03-06 11:08:00,52.5,30.7,29.47,North,353,2.7,4.0,43,0.00,,,0.00,VWS V14.01,2013-03-06 11:08:00,
2013-03-06 11:14:00,52.5,30.7,29.47,North,353,4.0,5.4,43,0.00,,,0.00,VWS V14.01,2013-03-06 11:14:00,
2013-03-06 11:19:00,52.5,31.2,29.47,North,353,3.1,3.1,44,0.00,,,0.00,VWS V14.01,2013-03-06 11:19:00,
2013-03-06 11:24:00,52.7,30.9,29.47,North,353,4.0,5.4,43,0.00,,,0.00,VWS V14.01,2013-03-06 11:24:00,
2013-03-06 11:29:00,52.9,31.0,29.47,North,353,3.6,5.4,43,0.00,,,0.00,VWS V14.01,2013-03-06 11:29:00,
2013-03-06 11:34:00,53.1,30.6,29.47,North,353,5.4,5.4,42,0.00,,,0.00,VWS V14.01,2013-03-06 11:34:00,
2013-03-06 11:39:00,53.2,30.8,29.47,North,353,2.7,5.4,42,0.00,,,0.00,VWS V14.01,2013-03-06 11:39:00,
2013-03-06 11:44:00,53.8,30.6,29.47,North,353,4.9,4.9,41,0.00,,,0.00,VWS V14.01,2013-03-06 11:44:00,
2013-03-06 11:49:00,54.0,30.2,29.47,North,353,4.9,5.8,40,0.00,,,0.00,VWS V14.01,2013-03-06 11:49:00,
2013-03-06 11:54:00,54.1,30.4,29.47,North,353,4.0,4.0,40,0.00,,,0.00,VWS V14.01,2013-03-06 11:54:00,
2013-03-06 11:59:00,54.3,30.5,29.47,North,353,4.9,5.8,40,0.00,,,0.00,VWS V14.01,2013-03-06 11:59:00,
2013-03-06 12:04:00,54.5,30.7,29.47,North,353,4.0,4.9,40,0.00,,,0.00,VWS V14.01,2013-03-06 12:04:00,
2013-03-06 12:09:00,54.7,30.2,29.47,North,353,3.1,5.4,39,0.00,,,0.00,VWS V14.01,2013-03-06 12:09:00,
2013-03-06 12:14:00,54.9,30.4,29.47,North,353,5.4,6.3,39,0.00,,,0.00,VWS V14.01,2013-03-06 12:14:00,
2013-03-06 12:20:00,55.0,30.5,29.47,North,353,3.6,5.4,39,0.00,,,0.00,VWS V14.01,2013-03-06 12:20:00,
2013-03-06 12:25:00,55.0,30.5,29.47,North,353,5.8,5.8,39,0.00,,,0.00,VWS V14.01,2013-03-06 12:25:00,
2013-03-06 12:30:00,55.0,30.5,29.47,North,353,2.7,5.8,39,0.00,,,0.00,VWS V14.01,2013-03-06 12:30:00,
2013-03-06 12:35:00,55.2,30.7,29.47,North,353,4.0,6.3,39,0.00,,,0.00,VWS V14.01,2013-03-06 12:35:00,
2013-03-06 12:40:00,55.0,30.5,29.47,North,353,4.0,4.9,39,0.00,,,0.00,VWS V14.01,2013-03-06 12:40:00,
2013-03-06 12:45:00,55.0,30.5,29.47,North,353,6.3,7.6,39,0.00,,,0.00,VWS V14.01,2013-03-06 12:45:00,
2013-03-06 12:50:00,55.0,30.5,29.47,North,353,3.1,3.1,39,0.00,,,0.00,VWS V14.01,2013-03-06 12:50:00,
2013-03-06 12:55:00,55.2,30.1,29.47,North,353,5.4,6.3,38,0.00,,,0.00,VWS V14.01,2013-03-06 12:55:00,
2013-03-06 13:00:00,55.4,30.2,29.47,North,353,6.3,6.3,38,0.00,,,0.00,VWS V14.01,2013-03-06 13:00:00,
2013-03-06 13:05:00,55.4,30.2,29.47,North,353,3.1,5.4,38,0.00,,,0.00,VWS V14.01,2013-03-06 13:05:00,
2013-03-06 13:10:00,55.4,30.2,29.47,North,353,3.6,3.6,38,0.00,,,0.00,VWS V14.01,2013-03-06 13:10:00,
2013-03-06 13:15:00,55.4,30.2,29.47,North,353,4.9,5.4,38,0.00,,,0.00,VWS V14.01,2013-03-06 13:15:00,
2013-03-06 13:20:00,55.4,30.2,29.47,North,353,4.0,4.0,38,0.00,,,0.00,VWS V14.01,2013-03-06 13:20:00,
2013-03-06 13:25:00,55.6,31.0,29.47,North,353,4.9,4.9,39,0.00,,,0.00,VWS V14.01,2013-03-06 13:25:00,
2013-03-06 13:30:00,55.6,31.0,29.47,North,353,3.6,5.4,39,0.00,,,0.00,VWS V14.01,2013-03-06 13:30:00,
2013-03-06 13:35:00,55.6,30.4,29.47,North,353,2.7,3.1,38,0.00,,,0.00,VWS V14.01,2013-03-06 13:35:00,
2013-03-06 13:40:00,55.6,30.4,29.47,North,353,4.0,4.9,38,0.00,,,0.00,VWS V14.01,2013-03-06 13:40:00,
2013-03-06 13:45:00,55.6,31.0,29.44,North,353,5.4,5.4,39,0.00,,,0.00,VWS V14.01,2013-03-06 13:45:00,
2013-03-06 13:50:00,55.8,30.6,29.44,North,353,3.1,3.1,38,0.00,,,0.00,VWS V14.01,2013-03-06 13:50:00,
2013-03-06 13:55:00,55.8,30.6,29.44,East,82,3.6,3.6,38,0.00,,,0.00,VWS V14.01,2013-03-06 13:55:00,
2013-03-06 14:00:00,55.8,30.6,29.44,North,353,2.7,3.1,38,0.00,,,0.00,VWS V14.01,2013-03-06 14:00:00,
2013-03-06 14:05:00,55.8,31.2,29.44,North,353,3.6,4.9,39,0.00,,,0.00,VWS V14.01,2013-03-06 14:05:00,
2013-03-06 14:11:00,55.6,31.0,29.44,North,353,2.7,4.0,39,0.00,,,0.00,VWS V14.01,2013-03-06 14:11:00,
2013-03-06 14:16:00,55.8,31.2,29.44,North,353,3.1,4.0,39,0.00,,,0.00,VWS V14.01,2013-03-06 14:16:00,
2013-03-06 14:21:00,55.8,31.2,29.44,North,353,3.6,4.9,39,0.00,,,0.00,VWS V14.01,2013-03-06 14:21:00,
2013-03-06 14:26:00,55.8,31.2,29.44,North,353,3.1,4.9,39,0.00,,,0.00,VWS V14.01,2013-03-06 14:26:00,
2013-03-06 14:31:00,55.9,31.4,29.44,North,353,0.0,0.0,39,0.00,,,0.00,VWS V14.01,2013-03-06 14:31:00,
2013-03-06 14:36:00,56.1,31.5,29.44,North,353,4.9,4.9,39,0.00,,,0.00,VWS V14.01,2013-03-06 14:36:00,
2013-03-06 14:41:00,56.1,31.5,29.44,North,353,3.6,3.6,39,0.00,,,0.00,VWS V14.01,2013-03-06 14:41:00,
2013-03-06 14:46:00,56.3,31.0,29.44,North,353,0.0,0.0,38,0.00,,,0.00,VWS V14.01,2013-03-06 14:46:00,
2013-03-06 14:51:00,56.3,31.0,29.44,North,353,0.0,0.0,38,0.00,,,0.00,VWS V14.01,2013-03-06 14:51:00,
2013-03-06 14:56:00,56.3,31.0,29.44,North,353,2.7,4.0,38,0.00,,,0.00,VWS V14.01,2013-03-06 14:56:00,
2013-03-06 15:01:00,56.3,31.0,29.44,North,353,3.6,3.6,38,0.00,,,0.00,VWS V14.01,2013-03-06 15:01:00,
2013-03-06 15:06:00,56.3,31.0,29.44,North,353,2.7,3.1,38,0.00,,,0.00,VWS V14.01,2013-03-06 15:06:00,
2013-03-06 15:11:00,56.3,31.7,29.44,North,353,3.1,3.1,39,0.00,,,0.00,VWS V14.01,2013-03-06 15:11:00,
2013-03-06 15:16:00,56.3,31.0,29.44,North,353,3.1,3.1,38,0.00,,,0.00,VWS V14.01,2013-03-06 15:16:00,
2013-03-06 15:21:00,56.3,31.0,29.44,North,353,4.0,4.9,38,0.00,,,0.00,VWS V14.01,2013-03-06 15:21:00,
2013-03-06 15:26:00,56.3,31.0,29.44,North,353,3.6,4.0,38,0.00,,,0.00,VWS V14.01,2013-03-06 15:26:00,
2013-03-06 15:31:00,56.3,31.0,29.44,North,353,2.2,3.1,38,0.00,,,0.00,VWS V14.01,2013-03-06 15:31:00,
2013-03-06 15:37:00,56.3,31.0,29.44,North,353,3.6,5.8,38,0.00,,,0.00,VWS V14.01,2013-03-06 15:37:00,
2013-03-06 15:42:00,56.3,31.0,29.44,North,353,5.4,5.4,38,0.00,,,0.00,VWS V14.01,2013-03-06 15:42:00,
2013-03-06 15:47:00,56.3,31.0,29.44,North,353,5.4,5.4,38,0.00,,,0.00,VWS V14.01,2013-03-06 15:47:00,
2013-03-06 15:52:00,56.1,30.9,29.44,North,353,4.0,5.4,38,0.00,,,0.00,VWS V14.01,2013-03-06 15:52:00,
2013-03-06 15:57:00,56.1,30.9,29.44,North,353,4.0,4.0,38,0.00,,,0.00,VWS V14.01,2013-03-06 15:57:00,
2013-03-06 16:02:00,55.9,30.7,29.44,North,353,4.9,5.8,38,0.00,,,0.00,VWS V14.01,2013-03-06 16:02:00,
2013-03-06 16:07:00,55.9,30.7,29.44,North,353,3.6,4.0,38,0.00,,,0.00,VWS V14.01,2013-03-06 16:07:00,
2013-03-06 16:12:00,55.8,30.6,29.44,North,353,6.3,6.3,38,0.00,,,0.00,VWS V14.01,2013-03-06 16:12:00,
2013-03-06 16:17:00,55.6,30.4,29.44,North,353,5.4,6.3,38,0.00,,,0.00,VWS V14.01,2013-03-06 16:17:00,
2013-03-06 16:22:00,55.4,30.2,29.44,North,353,4.9,5.8,38,0.00,,,0.00,VWS V14.01,2013-03-06 16:22:00,
2013-03-06 16:27:00,55.2,30.7,29.44,North,353,5.8,5.8,39,0.00,,,0.00,VWS V14.01,2013-03-06 16:27:00,
2013-03-06 16:32:00,55.2,30.7,29.44,North,353,5.8,5.8,39,0.00,,,0.00,VWS V14.01,2013-03-06 16:32:00,
2013-03-06 16:37:00,55.0,30.5,29.44,North,353,6.3,8.1,39,0.00,,,0.00,VWS V14.01,2013-03-06 16:37:00,
2013-03-06 16:42:00,54.9,30.4,29.44,North,353,7.6,8.3,39,0.00,,,0.00,VWS V14.01,2013-03-06 16:42:00,
2013-03-06 16:47:00,54.7,30.2,29.44,North,353,5.8,8.3,39,0.00,,,0.00,VWS V14.01,2013-03-06 16:47:00,
2013-03-06 16:52:00,54.5,30.7,29.44,North,353,7.6,7.6,40,0.00,,,0.00,VWS V14.01,2013-03-06 16:52:00,
2013-03-06 16:57:00,54.3,30.5,29.44,North,353,4.9,4.9,40,0.00,,,0.00,VWS V14.01,2013-03-06 16:57:00,
2013-03-06 17:02:00,54.1,31.0,29.44,North,353,6.3,7.2,41,0.00,,,0.00,VWS V14.01,2013-03-06 17:02:00,
2013-03-06 17:07:00,53.8,30.6,29.44,North,353,6.7,7.6,41,0.00,,,0.00,VWS V14.01,2013-03-06 17:07:00,
2013-03-06 17:12:00,53.6,31.1,29.44,North,353,4.0,4.0,42,0.00,,,0.00,VWS V14.01,2013-03-06 17:12:00,
2013-03-06 17:17:00,53.6,31.1,29.44,North,353,6.3,6.3,42,0.00,,,0.00,VWS V14.01,2013-03-06 17:17:00,
2013-03-06 17:22:00,53.4,31.5,29.44,North,353,4.0,6.3,43,0.00,,,0.00,VWS V14.01,2013-03-06 17:22:00,
2013-03-06 17:28:00,53.2,30.8,29.44,North,353,6.3,6.3,42,0.00,,,0.00,VWS V14.01,2013-03-06 17:28:00,
2013-03-06 17:33:00,53.2,30.2,29.44,North,353,6.3,6.3,41,0.00,,,0.00,VWS V14.01,2013-03-06 17:33:00,
2013-03-06 17:38:00,53.1,30.0,29.44,North,353,4.0,6.3,41,0.00,,,0.00,VWS V14.01,2013-03-06 17:38:00,
2013-03-06 17:43:00,53.1,30.0,29.44,North,353,6.3,6.3,41,0.00,,,0.00,VWS V14.01,2013-03-06 17:43:00,
2013-03-06 17:48:00,52.7,29.7,29.44,North,353,7.2,7.2,41,0.00,,,0.00,VWS V14.01,2013-03-06 17:48:00,
2013-03-06 17:53:00,52.7,29.7,29.44,North,353,5.8,5.8,41,0.00,,,0.00,VWS V14.01,2013-03-06 17:53:00,
2013-03-06 17:58:00,52.3,29.4,29.44,North,353,5.4,6.3,41,0.00,,,0.00,VWS V14.01,2013-03-06 17:58:00,
2013-03-06 18:03:00,52.2,29.2,29.44,North,353,5.8,6.3,41,0.00,,,0.00,VWS V14.01,2013-03-06 18:03:00,
2013-03-06 18:08:00,52.2,29.2,29.44,North,353,4.0,5.4,41,0.00,,,0.00,VWS V14.01,2013-03-06 18:08:00,
2013-03-06 18:13:00,52.0,29.0,29.44,North,353,4.9,5.8,41,0.00,,,0.00,VWS V14.01,2013-03-06 18:13:00,
2013-03-06 18:18:00,52.0,29.0,29.44,North,353,3.6,5.4,41,0.00,,,0.00,VWS V14.01,2013-03-06 18:18:00,
2013-03-06 18:23:00,51.8,28.9,29.44,North,353,4.0,4.0,41,0.00,,,0.00,VWS V14.01,2013-03-06 18:23:00,
2013-03-06 18:28:00,51.8,29.5,29.44,North,353,5.8,5.8,42,0.00,,,0.00,VWS V14.01,2013-03-06 18:28:00,
2013-03-06 18:33:00,51.6,29.3,29.44,North,353,2.7,4.9,42,0.00,,,0.00,VWS V14.01,2013-03-06 18:33:00,
2013-03-06 18:38:00,51.6,29.9,29.44,North,353,4.0,4.9,43,0.00,,,0.00,VWS V14.01,2013-03-06 18:38:00,
2013-03-06 18:43:00,51.4,30.3,29.47,North,353,3.6,4.0,44,0.00,,,0.00,VWS V14.01,2013-03-06 18:43:00,
2013-03-06 18:48:00,51.4,30.3,29.47,North,353,3.1,5.4,44,0.00,,,0.00,VWS V14.01,2013-03-06 18:48:00,
2013-03-06 18:53:00,51.4,30.3,29.47,North,353,3.6,5.8,44,0.00,,,0.00,VWS V14.01,2013-03-06 18:53:00,
2013-03-06 18:59:00,51.4,30.3,29.47,North,353,4.9,4.9,44,0.00,,,0.00,VWS V14.01,2013-03-06 18:59:00,
2013-03-06 19:04:00,50.5,34.1,29.47,North,353,3.6,4.9,53,0.00,,,0.00,VWS V14.01,2013-03-06 19:04:00,
2013-03-06 19:09:00,50.2,34.2,29.47,North,353,3.6,4.9,54,0.00,,,0.00,VWS V14.01,2013-03-06 19:09:00,
2013-03-06 19:14:00,49.8,34.3,29.47,North,353,6.3,6.3,55,0.00,,,0.00,VWS V14.01,2013-03-06 19:14:00,
2013-03-06 19:19:00,49.8,36.1,29.47,North,353,3.6,3.6,59,0.00,,,0.00,VWS V14.01,2013-03-06 19:19:00,
2013-03-06 19:24:00,49.6,37.2,29.47,North,353,5.4,5.8,62,0.00,,,0.00,VWS V14.01,2013-03-06 19:24:00,
2013-03-06 19:29:00,49.5,37.8,29.47,North,353,3.1,6.3,64,0.00,,,0.00,VWS V14.01,2013-03-06 19:29:00,
2013-03-06 19:34:00,49.5,38.2,29.47,North,353,4.0,5.4,65,0.00,,,0.00,VWS V14.01,2013-03-06 19:34:00,
2013-03-06 19:39:00,49.3,38.0,29.47,North,353,6.3,6.3,65,0.00,,,0.00,VWS V14.01,2013-03-06 19:39:00,
2013-03-06 19:44:00,49.1,37.1,29.47,North,353,5.4,5.8,63,0.00,,,0.00,VWS V14.01,2013-03-06 19:44:00,
2013-03-06 19:49:00,48.9,36.1,29.47,North,353,5.8,5.8,61,0.00,,,0.00,VWS V14.01,2013-03-06 19:49:00,
2013-03-06 19:54:00,48.7,35.5,29.47,East,91,8.1,8.1,60,0.00,,,0.00,VWS V14.01,2013-03-06 19:54:00,
2013-03-06 19:59:00,48.7,34.6,29.47,North,353,6.3,6.3,58,0.00,,,0.00,VWS V14.01,2013-03-06 19:59:00,
2013-03-06 20:04:00,48.7,34.6,29.47,North,353,4.9,4.9,58,0.00,,-RA,0.00,VWS V14.01,2013-03-06 20:04:00,
2013-03-06 20:09:00,48.6,35.3,29.47,ENE,57,4.0,4.0,60,0.00,,-RA,0.00,VWS V14.01,2013-03-06 20:09:00,
2013-03-06 20:14:00,48.6,35.3,29.47,ESE,109,3.6,4.0,60,0.00,,-RA,0.00,VWS V14.01,2013-03-06 20:14:00,
2013-03-06 20:19:00,48.4,34.7,29.47,ESE,113,3.1,4.0,59,0.00,,-RA,0.00,VWS V14.01,2013-03-06 20:19:00,
2013-03-06 20:24:00,48.4,35.2,29.47,ESE,105,3.1,4.9,60,0.00,,-RA,0.00,VWS V14.01,2013-03-06 20:24:00,
2013-03-06 20:29:00,48.4,35.2,29.47,East,98,5.8,8.7,60,0.00,,-RA,0.00,VWS V14.01,2013-03-06 20:29:00,
2013-03-06 20:35:00,48.2,35.0,29.47,East,96,3.1,4.5,60,0.00,,-RA,0.00,VWS V14.01,2013-03-06 20:35:00,
2013-03-06 20:40:00,48.2,35.0,29.47,ENE,65,3.1,4.0,60,0.00,,-RA,0.00,VWS V14.01,2013-03-06 20:40:00,
2013-03-06 20:45:00,48.2,35.8,29.44,East,80,5.4,6.3,62,0.00,,-RA,0.00,VWS V14.01,2013-03-06 20:45:00,
2013-03-06 20:50:00,48.2,35.8,29.44,ENE,60,5.4,5.4,62,0.00,,-RA,0.00,VWS V14.01,2013-03-06 20:50:00,
2013-03-06 20:55:00,48.0,35.6,29.44,ESE,111,5.4,5.4,62,0.00,,-RA,0.00,VWS V14.01,2013-03-06 20:55:00,
2013-03-06 21:00:00,48.0,36.0,29.44,East,86,2.7,3.6,63,0.00,,-RA,0.00,VWS V14.01,2013-03-06 21:00:00,
2013-03-06 21:05:00,48.0,36.0,29.44,ESE,102,3.6,3.6,63,0.00,,-RA,0.00,VWS V14.01,2013-03-06 21:05:00,
2013-03-06 21:10:00,48.0,36.0,29.44,East,92,3.6,4.0,63,0.00,,-RA,0.00,VWS V14.01,2013-03-06 21:10:00,
2013-03-06 21:15:00,47.8,35.9,29.47,ENE,75,4.9,4.9,63,0.00,,-RA,0.00,VWS V14.01,2013-03-06 21:15:00,
2013-03-06 21:20:00,47.8,36.3,29.47,East,86,5.8,5.8,64,0.00,,-RA,0.00,VWS V14.01,2013-03-06 21:20:00,
2013-03-06 21:25:00,47.8,36.3,29.47,East,88,4.0,5.4,64,0.00,,-RA,0.00,VWS V14.01,2013-03-06 21:25:00,
2013-03-06 21:30:00,47.8,36.7,29.47,ESE,102,3.1,3.1,65,0.00,,-RA,0.00,VWS V14.01,2013-03-06 21:30:00,
2013-03-06 21:35:00,47.8,37.0,29.47,NE,55,2.2,4.5,66,0.00,,-RA,0.00,VWS V14.01,2013-03-06 21:35:00,
2013-03-06 21:41:00,47.7,36.9,29.47,East,99,4.0,4.0,66,0.00,,-RA,0.00,VWS V14.01,2013-03-06 21:41:00,
2013-03-06 21:46:00,47.7,36.9,29.44,ENE,66,4.0,4.0,66,0.00,,-RA,0.00,VWS V14.01,2013-03-06 21:46:00,
2013-03-06 21:51:00,47.7,37.3,29.44,East,95,0.0,4.0,67,0.00,,-RA,0.00,VWS V14.01,2013-03-06 21:51:00,
2013-03-06 21:56:00,47.5,37.1,29.44,East,85,4.0,4.0,67,0.00,,-RA,0.00,VWS V14.01,2013-03-06 21:56:00,
2013-03-06 22:01:00,47.5,37.5,29.44,ENE,66,3.1,4.0,68,0.00,,,0.00,VWS V14.01,2013-03-06 22:01:00,
2013-03-06 22:06:00,47.5,37.8,29.44,ENE,75,3.6,4.9,69,0.00,,,0.00,VWS V14.01,2013-03-06 22:06:00,
2013-03-06 22:11:00,47.5,38.2,29.44,East,99,2.7,4.0,70,0.00,,,0.00,VWS V14.01,2013-03-06 22:11:00,
2013-03-06 22:16:00,47.5,38.2,29.44,East,82,3.6,3.6,70,0.00,,,0.00,VWS V14.01,2013-03-06 22:16:00,
2013-03-06 22:21:00,47.5,38.2,29.44,East,92,3.6,5.4,70,0.00,,,0.00,VWS V14.01,2013-03-06 22:21:00,
2013-03-06 22:26:00,47.5,38.2,29.44,East,80,4.0,4.0,70,0.00,,,0.00,VWS V14.01,2013-03-06 22:26:00,
2013-03-06 22:31:00,47.3,38.4,29.44,ENE,69,2.7,3.1,71,0.00,,,0.00,VWS V14.01,2013-03-06 22:31:00,
2013-03-06 22:36:00,47.3,38.4,29.44,ESE,103,3.6,3.6,71,0.00,,,0.00,VWS V14.01,2013-03-06 22:36:00,
2013-03-06 22:41:00,47.1,38.2,29.44,East,81,2.7,3.6,71,0.00,,,0.00,VWS V14.01,2013-03-06 22:41:00,
2013-03-06 22:46:00,47.1,38.2,29.44,ENE,57,3.1,4.0,71,0.00,,,0.00,VWS V14.01,2013-03-06 22:46:00,
2013-03-06 22:51:00,47.1,38.2,29.44,ENE,68,3.6,3.6,71,0.00,,,0.00,VWS V14.01,2013-03-06 22:51:00,
2013-03-06 22:56:00,47.1,38.2,29.44,ENE,77,4.9,4.9,71,0.00,,,0.00,VWS V14.01,2013-03-06 22:56:00,
2013-03-06 23:01:00,47.1,38.2,29.44,ESE,104,2.7,3.6,71,0.00,,-RA,0.00,VWS V14.01,2013-03-06 23:01:00,
2013-03-06 23:06:00,47.1,38.2,29.44,ENE,70,5.4,5.4,71,0.00,,-RA,0.00,VWS V14.01,2013-03-06 23:06:00,
2013-03-06 23:11:00,47.1,38.6,29.44,ENE,71,3.1,4.0,72,0.00,,-RA,0.00,VWS V14.01,2013-03-06 23:11:00,
2013-03-06 23:16:00,47.1,38.6,29.44,ENE,62,3.1,4.0,72,0.00,,-RA,0.00,VWS V14.01,2013-03-06 23:16:00,
2013-03-06 23:21:00,47.1,38.6,29.44,ESE,109,3.1,3.6,72,0.00,,-RA,0.00,VWS V14.01,2013-03-06 23:21:00,
2013-03-06 23:27:00,47.1,38.6,29.44,East,80,3.1,3.1,72,0.00,,-RA,0.00,VWS V14.01,2013-03-06 23:27:00,
2013-03-06 23:32:00,47.1,38.6,29.44,ENE,65,2.7,3.6,72,0.00,,-RA,0.00,VWS V14.01,2013-03-06 23:32:00,
2013-03-06 23:37:00,47.1,38.6,29.44,ESE,109,3.1,4.9,72,0.00,,-RA,0.00,VWS V14.01,2013-03-06 23:37:00,
2013-03-06 23:42:00,47.1,38.6,29.44,ESE,118,4.0,4.9,72,0.00,,-RA,0.00,VWS V14.01,2013-03-06 23:42:00,
2013-03-06 23:47:00,47.1,38.6,29.44,East,89,0.0,3.6,72,0.00,,-RA,0.00,VWS V14.01,2013-03-06 23:47:00,
2013-03-06 23:52:00,46.9,39.1,29.44,East,85,2.7,4.0,74,0.00,,-RA,0.00,VWS V14.01,2013-03-06 23:52:00,
2013-03-06 23:57:00,46.8,38.9,29.44,East,97,4.9,5.8,74,0.00,,-RA,0.00,VWS V14.01,2013-03-06 23:57:00,